sensor_id;sensor_type;location;lat;lon;timestamp;P1;durP1;ratioP1;P2;durP2;ratioP2
75450;SDS011;64029;48.244;9.188;2023-11-19T00:02:25;6.63;;;5.93;;
75450;SDS011;64029;48.244;9.188;2023-11-19T00:04:52;8.53;;;6.33;;
75450;SDS011;64029;48.244;9.188;2023-11-19T00:07:19;6.43;;;5.60;;
75450;SDS011;64029;48.244;9.188;2023-11-19T00:09:46;6.63;;;5.77;;
75450;SDS011;64029;48.244;9.188;2023-11-19T00:12:13;5.47;;;4.90;;
75450;SDS011;64029;48.244;9.188;2023-11-19T00:14:41;5.33;;;4.83;;
75450;SDS011;64029;48.244;9.188;2023-11-19T00:17:07;6.73;;;4.60;;
75450;SDS011;64029;48.244;9.188;2023-11-19T00:19:34;5.50;;;4.80;;
75450;SDS011;64029;48.244;9.188;2023-11-19T00:22:01;5.27;;;4.60;;
75450;SDS011;64029;48.244;9.188;2023-11-19T00:24:28;5.27;;;4.43;;
75450;SDS011;64029;48.244;9.188;2023-11-19T00:26:56;6.33;;;5.07;;
75450;SDS011;64029;48.244;9.188;2023-11-19T00:29:23;5.77;;;5.17;;
75450;SDS011;64029;48.244;9.188;2023-11-19T00:31:53;5.90;;;4.80;;
75450;SDS011;64029;48.244;9.188;2023-11-19T00:34:19;6.43;;;5.77;;
75450;SDS011;64029;48.244;9.188;2023-11-19T00:36:47;6.23;;;4.93;;
75450;SDS011;64029;48.244;9.188;2023-11-19T00:39:14;5.53;;;4.63;;
75450;SDS011;64029;48.244;9.188;2023-11-19T00:41:43;10.30;;;5.57;;
75450;SDS011;64029;48.244;9.188;2023-11-19T00:44:11;5.53;;;4.43;;
75450;SDS011;64029;48.244;9.188;2023-11-19T00:46:37;6.53;;;5.33;;
75450;SDS011;64029;48.244;9.188;2023-11-19T00:49:06;5.33;;;4.83;;
75450;SDS011;64029;48.244;9.188;2023-11-19T00:51:32;5.70;;;4.53;;
75450;SDS011;64029;48.244;9.188;2023-11-19T00:53:59;5.77;;;4.00;;
75450;SDS011;64029;48.244;9.188;2023-11-19T00:56:26;7.13;;;5.27;;
75450;SDS011;64029;48.244;9.188;2023-11-19T00:58:54;4.90;;;4.33;;
75450;SDS011;64029;48.244;9.188;2023-11-19T01:01:21;4.77;;;4.30;;
75450;SDS011;64029;48.244;9.188;2023-11-19T01:03:48;5.03;;;4.10;;
75450;SDS011;64029;48.244;9.188;2023-11-19T01:06:25;4.50;;;4.10;;
75450;SDS011;64029;48.244;9.188;2023-11-19T01:08:53;4.53;;;3.70;;
75450;SDS011;64029;48.244;9.188;2023-11-19T01:11:20;5.87;;;5.27;;
75450;SDS011;64029;48.244;9.188;2023-11-19T01:13:47;4.83;;;3.93;;
75450;SDS011;64029;48.244;9.188;2023-11-19T01:16:14;4.10;;;3.70;;
75450;SDS011;64029;48.244;9.188;2023-11-19T01:18:41;4.57;;;3.90;;
75450;SDS011;64029;48.244;9.188;2023-11-19T01:21:07;4.33;;;3.90;;
75450;SDS011;64029;48.244;9.188;2023-11-19T01:23:36;5.87;;;3.70;;
75450;SDS011;64029;48.244;9.188;2023-11-19T01:26:03;5.00;;;4.50;;
75450;SDS011;64029;48.244;9.188;2023-11-19T01:28:31;5.20;;;4.70;;
75450;SDS011;64029;48.244;9.188;2023-11-19T01:30:57;4.07;;;3.67;;
75450;SDS011;64029;48.244;9.188;2023-11-19T01:33:24;5.60;;;4.40;;
75450;SDS011;64029;48.244;9.188;2023-11-19T01:35:51;4.33;;;3.70;;
75450;SDS011;64029;48.244;9.188;2023-11-19T01:38:18;5.97;;;3.70;;
75450;SDS011;64029;48.244;9.188;2023-11-19T01:40:46;4.90;;;3.77;;
75450;SDS011;64029;48.244;9.188;2023-11-19T01:43:22;4.13;;;3.73;;
75450;SDS011;64029;48.244;9.188;2023-11-19T01:45:58;5.60;;;4.17;;
75450;SDS011;64029;48.244;9.188;2023-11-19T01:48:24;4.63;;;3.77;;
75450;SDS011;64029;48.244;9.188;2023-11-19T01:50:52;4.77;;;4.00;;
75450;SDS011;64029;48.244;9.188;2023-11-19T01:53:19;4.83;;;3.97;;
75450;SDS011;64029;48.244;9.188;2023-11-19T01:55:48;6.13;;;3.40;;
75450;SDS011;64029;48.244;9.188;2023-11-19T01:58:15;5.40;;;4.40;;
75450;SDS011;64029;48.244;9.188;2023-11-19T02:00:43;7.17;;;4.33;;
75450;SDS011;64029;48.244;9.188;2023-11-19T02:03:11;3.73;;;3.33;;
75450;SDS011;64029;48.244;9.188;2023-11-19T02:05:38;5.20;;;4.03;;
75450;SDS011;64029;48.244;9.188;2023-11-19T02:08:06;4.40;;;3.57;;
75450;SDS011;64029;48.244;9.188;2023-11-19T02:10:33;5.20;;;3.13;;
75450;SDS011;64029;48.244;9.188;2023-11-19T02:13:02;3.57;;;3.10;;
75450;SDS011;64029;48.244;9.188;2023-11-19T02:15:31;4.03;;;3.63;;
75450;SDS011;64029;48.244;9.188;2023-11-19T02:20:46;2.87;;;2.63;;
75450;SDS011;64029;48.244;9.188;2023-11-19T02:23:14;5.50;;;3.73;;
75450;SDS011;64029;48.244;9.188;2023-11-19T02:25:41;8.50;;;3.60;;
75450;SDS011;64029;48.244;9.188;2023-11-19T02:28:13;5.57;;;4.60;;
75450;SDS011;64029;48.244;9.188;2023-11-19T02:30:41;4.90;;;4.03;;
75450;SDS011;64029;48.244;9.188;2023-11-19T02:33:08;4.20;;;3.80;;
75450;SDS011;64029;48.244;9.188;2023-11-19T02:35:34;5.93;;;4.97;;
75450;SDS011;64029;48.244;9.188;2023-11-19T02:38:01;4.40;;;3.93;;
75450;SDS011;64029;48.244;9.188;2023-11-19T02:40:28;4.97;;;3.83;;
75450;SDS011;64029;48.244;9.188;2023-11-19T02:42:55;3.00;;;2.70;;
75450;SDS011;64029;48.244;9.188;2023-11-19T02:45:24;2.60;;;2.40;;
75450;SDS011;64029;48.244;9.188;2023-11-19T02:47:51;3.93;;;3.50;;
75450;SDS011;64029;48.244;9.188;2023-11-19T02:50:20;5.87;;;3.43;;
75450;SDS011;64029;48.244;9.188;2023-11-19T02:52:51;7.90;;;4.23;;
75450;SDS011;64029;48.244;9.188;2023-11-19T02:55:21;3.80;;;3.33;;
75450;SDS011;64029;48.244;9.188;2023-11-19T02:57:49;5.50;;;3.90;;
75450;SDS011;64029;48.244;9.188;2023-11-19T03:00:18;5.37;;;4.20;;
75450;SDS011;64029;48.244;9.188;2023-11-19T03:02:50;6.30;;;2.47;;
75450;SDS011;64029;48.244;9.188;2023-11-19T03:05:24;4.43;;;3.67;;
75450;SDS011;64029;48.244;9.188;2023-11-19T03:07:55;2.63;;;2.43;;
75450;SDS011;64029;48.244;9.188;2023-11-19T03:10:22;3.63;;;3.27;;
75450;SDS011;64029;48.244;9.188;2023-11-19T03:12:49;4.53;;;3.47;;
75450;SDS011;64029;48.244;9.188;2023-11-19T03:15:16;3.90;;;3.17;;
75450;SDS011;64029;48.244;9.188;2023-11-19T03:17:43;2.43;;;2.10;;
75450;SDS011;64029;48.244;9.188;2023-11-19T03:20:11;3.00;;;2.50;;
75450;SDS011;64029;48.244;9.188;2023-11-19T03:22:40;2.67;;;2.33;;
75450;SDS011;64029;48.244;9.188;2023-11-19T03:25:07;2.60;;;2.37;;
75450;SDS011;64029;48.244;9.188;2023-11-19T03:27:34;1.97;;;1.83;;
75450;SDS011;64029;48.244;9.188;2023-11-19T03:30:02;4.10;;;3.07;;
75450;SDS011;64029;48.244;9.188;2023-11-19T03:32:29;4.57;;;2.60;;
75450;SDS011;64029;48.244;9.188;2023-11-19T03:34:57;2.40;;;2.20;;
75450;SDS011;64029;48.244;9.188;2023-11-19T03:37:25;2.00;;;1.70;;
75450;SDS011;64029;48.244;9.188;2023-11-19T03:39:53;2.67;;;2.33;;
75450;SDS011;64029;48.244;9.188;2023-11-19T03:42:20;2.73;;;2.40;;
75450;SDS011;64029;48.244;9.188;2023-11-19T03:44:47;6.03;;;3.10;;
75450;SDS011;64029;48.244;9.188;2023-11-19T03:47:14;4.07;;;2.80;;
75450;SDS011;64029;48.244;9.188;2023-11-19T03:49:41;2.70;;;2.50;;
75450;SDS011;64029;48.244;9.188;2023-11-19T03:52:09;2.10;;;1.90;;
75450;SDS011;64029;48.244;9.188;2023-11-19T03:54:37;2.07;;;1.77;;
75450;SDS011;64029;48.244;9.188;2023-11-19T03:57:04;4.30;;;2.90;;
75450;SDS011;64029;48.244;9.188;2023-11-19T03:59:31;3.80;;;2.77;;
75450;SDS011;64029;48.244;9.188;2023-11-19T04:01:58;2.40;;;2.07;;
75450;SDS011;64029;48.244;9.188;2023-11-19T04:04:27;2.50;;;1.97;;
75450;SDS011;64029;48.244;9.188;2023-11-19T04:06:55;2.57;;;2.27;;
75450;SDS011;64029;48.244;9.188;2023-11-19T04:09:23;5.60;;;2.07;;
75450;SDS011;64029;48.244;9.188;2023-11-19T04:11:51;2.20;;;1.93;;
75450;SDS011;64029;48.244;9.188;2023-11-19T04:14:18;2.00;;;1.80;;
75450;SDS011;64029;48.244;9.188;2023-11-19T04:16:45;2.60;;;2.40;;
75450;SDS011;64029;48.244;9.188;2023-11-19T04:19:13;1.90;;;1.70;;
75450;SDS011;64029;48.244;9.188;2023-11-19T04:21:39;2.37;;;1.90;;
75450;SDS011;64029;48.244;9.188;2023-11-19T04:24:07;2.43;;;2.13;;
75450;SDS011;64029;48.244;9.188;2023-11-19T04:26:39;4.73;;;3.03;;
75450;SDS011;64029;48.244;9.188;2023-11-19T04:29:08;3.17;;;2.40;;
75450;SDS011;64029;48.244;9.188;2023-11-19T04:31:36;2.23;;;2.03;;
75450;SDS011;64029;48.244;9.188;2023-11-19T04:34:03;2.60;;;2.17;;
75450;SDS011;64029;48.244;9.188;2023-11-19T04:36:30;2.00;;;1.80;;
75450;SDS011;64029;48.244;9.188;2023-11-19T04:38:56;2.20;;;2.00;;
75450;SDS011;64029;48.244;9.188;2023-11-19T04:41:24;2.10;;;1.90;;
75450;SDS011;64029;48.244;9.188;2023-11-19T04:43:52;4.00;;;2.70;;
75450;SDS011;64029;48.244;9.188;2023-11-19T04:46:20;3.57;;;2.60;;
75450;SDS011;64029;48.244;9.188;2023-11-19T04:48:48;2.53;;;2.20;;
75450;SDS011;64029;48.244;9.188;2023-11-19T04:51:15;3.87;;;2.33;;
75450;SDS011;64029;48.244;9.188;2023-11-19T04:53:42;3.43;;;3.13;;
75450;SDS011;64029;48.244;9.188;2023-11-19T04:56:09;5.30;;;2.83;;
75450;SDS011;64029;48.244;9.188;2023-11-19T04:58:37;2.30;;;2.10;;
75450;SDS011;64029;48.244;9.188;2023-11-19T05:01:04;5.10;;;3.80;;
75450;SDS011;64029;48.244;9.188;2023-11-19T05:03:32;7.00;;;3.73;;
75450;SDS011;64029;48.244;9.188;2023-11-19T05:05:59;4.53;;;3.63;;
75450;SDS011;64029;48.244;9.188;2023-11-19T05:08:26;3.57;;;3.20;;
75450;SDS011;64029;48.244;9.188;2023-11-19T05:10:53;3.20;;;2.70;;
75450;SDS011;64029;48.244;9.188;2023-11-19T05:13:19;4.70;;;3.93;;
75450;SDS011;64029;48.244;9.188;2023-11-19T05:15:47;4.20;;;3.50;;
75450;SDS011;64029;48.244;9.188;2023-11-19T05:18:14;3.80;;;3.40;;
75450;SDS011;64029;48.244;9.188;2023-11-19T05:20:42;5.10;;;4.40;;
75450;SDS011;64029;48.244;9.188;2023-11-19T05:23:08;5.73;;;4.37;;
75450;SDS011;64029;48.244;9.188;2023-11-19T05:25:36;3.63;;;3.30;;
75450;SDS011;64029;48.244;9.188;2023-11-19T05:28:03;2.87;;;2.63;;
75450;SDS011;64029;48.244;9.188;2023-11-19T05:30:30;3.50;;;2.83;;
75450;SDS011;64029;48.244;9.188;2023-11-19T05:32:56;7.50;;;3.83;;
75450;SDS011;64029;48.244;9.188;2023-11-19T05:35:23;3.80;;;2.93;;
75450;SDS011;64029;48.244;9.188;2023-11-19T05:37:51;3.73;;;2.70;;
75450;SDS011;64029;48.244;9.188;2023-11-19T05:40:18;4.50;;;3.30;;
75450;SDS011;64029;48.244;9.188;2023-11-19T05:42:45;2.90;;;2.67;;
75450;SDS011;64029;48.244;9.188;2023-11-19T05:45:12;2.87;;;2.63;;
75450;SDS011;64029;48.244;9.188;2023-11-19T05:47:39;5.13;;;3.40;;
75450;SDS011;64029;48.244;9.188;2023-11-19T05:50:07;4.20;;;3.47;;
75450;SDS011;64029;48.244;9.188;2023-11-19T05:52:35;3.63;;;3.27;;
75450;SDS011;64029;48.244;9.188;2023-11-19T05:55:03;2.83;;;2.60;;
75450;SDS011;64029;48.244;9.188;2023-11-19T05:57:34;2.60;;;2.40;;
75450;SDS011;64029;48.244;9.188;2023-11-19T06:00:01;3.30;;;2.50;;
75450;SDS011;64029;48.244;9.188;2023-11-19T06:02:32;4.20;;;3.63;;
75450;SDS011;64029;48.244;9.188;2023-11-19T06:04:58;5.20;;;3.80;;
75450;SDS011;64029;48.244;9.188;2023-11-19T06:07:25;6.10;;;4.30;;
75450;SDS011;64029;48.244;9.188;2023-11-19T06:09:52;4.83;;;4.00;;
75450;SDS011;64029;48.244;9.188;2023-11-19T06:12:20;5.70;;;5.03;;
75450;SDS011;64029;48.244;9.188;2023-11-19T06:14:47;5.67;;;4.40;;
75450;SDS011;64029;48.244;9.188;2023-11-19T06:17:14;6.07;;;4.70;;
75450;SDS011;64029;48.244;9.188;2023-11-19T06:19:40;5.33;;;4.37;;
75450;SDS011;64029;48.244;9.188;2023-11-19T06:22:07;4.00;;;3.63;;
75450;SDS011;64029;48.244;9.188;2023-11-19T06:24:34;5.93;;;3.07;;
75450;SDS011;64029;48.244;9.188;2023-11-19T06:27:01;5.87;;;5.10;;
75450;SDS011;64029;48.244;9.188;2023-11-19T06:29:29;6.07;;;4.60;;
75450;SDS011;64029;48.244;9.188;2023-11-19T06:31:56;6.07;;;4.73;;
75450;SDS011;64029;48.244;9.188;2023-11-19T06:34:22;4.20;;;3.70;;
75450;SDS011;64029;48.244;9.188;2023-11-19T06:36:49;4.43;;;3.70;;
75450;SDS011;64029;48.244;9.188;2023-11-19T06:39:16;5.30;;;4.00;;
75450;SDS011;64029;48.244;9.188;2023-11-19T06:41:44;3.87;;;3.43;;
75450;SDS011;64029;48.244;9.188;2023-11-19T06:44:11;4.10;;;3.13;;
75450;SDS011;64029;48.244;9.188;2023-11-19T06:46:39;6.63;;;5.10;;
75450;SDS011;64029;48.244;9.188;2023-11-19T06:49:06;8.00;;;5.70;;
75450;SDS011;64029;48.244;9.188;2023-11-19T06:51:33;6.33;;;4.70;;
75450;SDS011;64029;48.244;9.188;2023-11-19T06:54:00;5.90;;;5.00;;
75450;SDS011;64029;48.244;9.188;2023-11-19T06:56:27;5.60;;;5.10;;
75450;SDS011;64029;48.244;9.188;2023-11-19T06:58:54;8.20;;;5.17;;
75450;SDS011;64029;48.244;9.188;2023-11-19T07:01:19;4.43;;;3.90;;
75450;SDS011;64029;48.244;9.188;2023-11-19T07:03:48;4.40;;;3.90;;
75450;SDS011;64029;48.244;9.188;2023-11-19T07:06:16;5.33;;;4.17;;
75450;SDS011;64029;48.244;9.188;2023-11-19T07:08:43;7.70;;;5.80;;
75450;SDS011;64029;48.244;9.188;2023-11-19T07:11:10;7.00;;;5.23;;
75450;SDS011;64029;48.244;9.188;2023-11-19T07:13:38;5.43;;;4.70;;
75450;SDS011;64029;48.244;9.188;2023-11-19T07:16:06;8.57;;;6.70;;
75450;SDS011;64029;48.244;9.188;2023-11-19T07:18:35;6.63;;;5.30;;
75450;SDS011;64029;48.244;9.188;2023-11-19T07:21:03;10.73;;;7.63;;
75450;SDS011;64029;48.244;9.188;2023-11-19T07:23:31;8.00;;;5.37;;
75450;SDS011;64029;48.244;9.188;2023-11-19T07:25:59;5.90;;;4.67;;
75450;SDS011;64029;48.244;9.188;2023-11-19T07:28:26;5.20;;;4.60;;
75450;SDS011;64029;48.244;9.188;2023-11-19T07:30:53;9.10;;;7.10;;
75450;SDS011;64029;48.244;9.188;2023-11-19T07:33:21;7.40;;;6.00;;
75450;SDS011;64029;48.244;9.188;2023-11-19T07:35:48;7.17;;;5.83;;
75450;SDS011;64029;48.244;9.188;2023-11-19T07:38:17;6.03;;;5.13;;
75450;SDS011;64029;48.244;9.188;2023-11-19T07:40:44;8.17;;;6.90;;
75450;SDS011;64029;48.244;9.188;2023-11-19T07:43:12;7.90;;;6.53;;
75450;SDS011;64029;48.244;9.188;2023-11-19T07:45:39;11.20;;;8.90;;
75450;SDS011;64029;48.244;9.188;2023-11-19T07:48:10;13.20;;;9.43;;
75450;SDS011;64029;48.244;9.188;2023-11-19T07:50:38;11.20;;;7.70;;
75450;SDS011;64029;48.244;9.188;2023-11-19T07:53:05;11.17;;;7.43;;
75450;SDS011;64029;48.244;9.188;2023-11-19T07:55:33;11.13;;;7.80;;
75450;SDS011;64029;48.244;9.188;2023-11-19T07:58:00;9.67;;;7.40;;
75450;SDS011;64029;48.244;9.188;2023-11-19T08:00:27;8.67;;;6.50;;
75450;SDS011;64029;48.244;9.188;2023-11-19T08:02:54;9.57;;;6.57;;
75450;SDS011;64029;48.244;9.188;2023-11-19T08:05:21;10.17;;;6.87;;
75450;SDS011;64029;48.244;9.188;2023-11-19T08:07:49;7.40;;;5.57;;
75450;SDS011;64029;48.244;9.188;2023-11-19T08:10:17;8.90;;;7.17;;
75450;SDS011;64029;48.244;9.188;2023-11-19T08:12:45;5.63;;;4.90;;
75450;SDS011;64029;48.244;9.188;2023-11-19T08:15:12;7.83;;;6.30;;
75450;SDS011;64029;48.244;9.188;2023-11-19T08:17:38;7.50;;;5.83;;
75450;SDS011;64029;48.244;9.188;2023-11-19T08:20:06;10.10;;;7.00;;
75450;SDS011;64029;48.244;9.188;2023-11-19T08:22:35;11.23;;;6.93;;
75450;SDS011;64029;48.244;9.188;2023-11-19T08:25:02;6.00;;;5.07;;
75450;SDS011;64029;48.244;9.188;2023-11-19T08:27:29;4.70;;;4.30;;
75450;SDS011;64029;48.244;9.188;2023-11-19T08:29:57;8.17;;;6.13;;
75450;SDS011;64029;48.244;9.188;2023-11-19T08:32:25;5.90;;;4.80;;
75450;SDS011;64029;48.244;9.188;2023-11-19T08:34:52;5.20;;;4.13;;
75450;SDS011;64029;48.244;9.188;2023-11-19T08:37:19;6.03;;;4.17;;
75450;SDS011;64029;48.244;9.188;2023-11-19T08:39:47;5.30;;;4.47;;
75450;SDS011;64029;48.244;9.188;2023-11-19T08:42:13;6.17;;;4.67;;
75450;SDS011;64029;48.244;9.188;2023-11-19T08:44:40;8.40;;;5.93;;
75450;SDS011;64029;48.244;9.188;2023-11-19T08:47:10;5.60;;;4.40;;
75450;SDS011;64029;48.244;9.188;2023-11-19T08:49:38;8.10;;;5.83;;
75450;SDS011;64029;48.244;9.188;2023-11-19T08:52:05;7.90;;;6.13;;
75450;SDS011;64029;48.244;9.188;2023-11-19T08:54:32;7.80;;;5.00;;
75450;SDS011;64029;48.244;9.188;2023-11-19T08:56:59;10.63;;;6.73;;
75450;SDS011;64029;48.244;9.188;2023-11-19T08:59:27;5.43;;;4.57;;
75450;SDS011;64029;48.244;9.188;2023-11-19T09:01:54;11.07;;;5.90;;
75450;SDS011;64029;48.244;9.188;2023-11-19T09:04:23;9.87;;;7.03;;
75450;SDS011;64029;48.244;9.188;2023-11-19T09:06:50;6.77;;;5.27;;
75450;SDS011;64029;48.244;9.188;2023-11-19T09:09:17;7.60;;;6.00;;
75450;SDS011;64029;48.244;9.188;2023-11-19T09:11:45;9.60;;;6.90;;
75450;SDS011;64029;48.244;9.188;2023-11-19T09:14:12;10.10;;;6.00;;
75450;SDS011;64029;48.244;9.188;2023-11-19T09:16:39;12.40;;;6.60;;
75450;SDS011;64029;48.244;9.188;2023-11-19T09:19:05;8.20;;;4.60;;
75450;SDS011;64029;48.244;9.188;2023-11-19T09:21:33;7.53;;;5.93;;
75450;SDS011;64029;48.244;9.188;2023-11-19T09:24:03;12.70;;;6.63;;
75450;SDS011;64029;48.244;9.188;2023-11-19T09:26:32;7.03;;;4.70;;
75450;SDS011;64029;48.244;9.188;2023-11-19T09:28:59;10.70;;;6.60;;
75450;SDS011;64029;48.244;9.188;2023-11-19T09:31:26;16.17;;;8.43;;
75450;SDS011;64029;48.244;9.188;2023-11-19T09:33:53;16.13;;;8.50;;
75450;SDS011;64029;48.244;9.188;2023-11-19T09:36:20;14.47;;;7.97;;
75450;SDS011;64029;48.244;9.188;2023-11-19T09:38:48;9.07;;;6.33;;
75450;SDS011;64029;48.244;9.188;2023-11-19T09:41:15;9.80;;;7.13;;
75450;SDS011;64029;48.244;9.188;2023-11-19T09:43:44;11.80;;;7.50;;
75450;SDS011;64029;48.244;9.188;2023-11-19T09:46:12;11.63;;;7.20;;
75450;SDS011;64029;48.244;9.188;2023-11-19T09:48:41;16.20;;;8.50;;
75450;SDS011;64029;48.244;9.188;2023-11-19T09:51:09;8.47;;;5.50;;
75450;SDS011;64029;48.244;9.188;2023-11-19T09:53:36;13.00;;;8.13;;
75450;SDS011;64029;48.244;9.188;2023-11-19T09:56:06;13.43;;;7.80;;
75450;SDS011;64029;48.244;9.188;2023-11-19T09:58:34;7.13;;;5.40;;
75450;SDS011;64029;48.244;9.188;2023-11-19T10:01:01;7.20;;;5.90;;
75450;SDS011;64029;48.244;9.188;2023-11-19T10:03:32;13.50;;;8.13;;
75450;SDS011;64029;48.244;9.188;2023-11-19T10:06:00;7.27;;;5.30;;
75450;SDS011;64029;48.244;9.188;2023-11-19T10:08:27;8.60;;;5.93;;
75450;SDS011;64029;48.244;9.188;2023-11-19T10:10:55;10.60;;;6.00;;
75450;SDS011;64029;48.244;9.188;2023-11-19T10:13:27;6.53;;;4.90;;
75450;SDS011;64029;48.244;9.188;2023-11-19T10:15:55;5.80;;;4.70;;
75450;SDS011;64029;48.244;9.188;2023-11-19T10:18:23;8.90;;;6.67;;
75450;SDS011;64029;48.244;9.188;2023-11-19T10:20:51;10.63;;;7.17;;
75450;SDS011;64029;48.244;9.188;2023-11-19T10:23:20;9.20;;;6.50;;
75450;SDS011;64029;48.244;9.188;2023-11-19T10:25:47;8.97;;;5.90;;
75450;SDS011;64029;48.244;9.188;2023-11-19T10:28:14;5.47;;;4.27;;
75450;SDS011;64029;48.244;9.188;2023-11-19T10:30:43;4.30;;;3.90;;
75450;SDS011;64029;48.244;9.188;2023-11-19T10:33:10;2.83;;;2.63;;
75450;SDS011;64029;48.244;9.188;2023-11-19T10:35:50;4.40;;;3.40;;
75450;SDS011;64029;48.244;9.188;2023-11-19T10:38:18;2.90;;;2.70;;
75450;SDS011;64029;48.244;9.188;2023-11-19T10:40:45;2.80;;;2.60;;
75450;SDS011;64029;48.244;9.188;2023-11-19T10:43:12;2.50;;;2.30;;
75450;SDS011;64029;48.244;9.188;2023-11-19T10:45:39;3.33;;;3.00;;
75450;SDS011;64029;48.244;9.188;2023-11-19T10:48:08;3.20;;;2.80;;
75450;SDS011;64029;48.244;9.188;2023-11-19T10:50:35;3.10;;;2.23;;
75450;SDS011;64029;48.244;9.188;2023-11-19T10:53:04;2.30;;;2.10;;
75450;SDS011;64029;48.244;9.188;2023-11-19T10:55:32;4.03;;;1.80;;
75450;SDS011;64029;48.244;9.188;2023-11-19T10:58:02;1.90;;;1.30;;
75450;SDS011;64029;48.244;9.188;2023-11-19T11:00:38;1.47;;;1.37;;
75450;SDS011;64029;48.244;9.188;2023-11-19T11:03:17;2.17;;;1.20;;
75450;SDS011;64029;48.244;9.188;2023-11-19T11:05:45;1.30;;;1.20;;
75450;SDS011;64029;48.244;9.188;2023-11-19T11:08:13;1.40;;;1.20;;
75450;SDS011;64029;48.244;9.188;2023-11-19T11:10:42;1.30;;;1.20;;
75450;SDS011;64029;48.244;9.188;2023-11-19T11:13:11;1.83;;;1.40;;
75450;SDS011;64029;48.244;9.188;2023-11-19T11:15:40;1.60;;;1.50;;
75450;SDS011;64029;48.244;9.188;2023-11-19T11:18:08;1.23;;;1.13;;
75450;SDS011;64029;48.244;9.188;2023-11-19T11:20:36;1.73;;;1.27;;
75450;SDS011;64029;48.244;9.188;2023-11-19T11:23:11;2.90;;;1.30;;
75450;SDS011;64029;48.244;9.188;2023-11-19T11:26:13;3.20;;;1.53;;
75450;SDS011;64029;48.244;9.188;2023-11-19T11:29:02;1.40;;;1.30;;
75450;SDS011;64029;48.244;9.188;2023-11-19T11:31:35;1.40;;;1.30;;
75450;SDS011;64029;48.244;9.188;2023-11-19T11:34:10;1.83;;;1.33;;
75450;SDS011;64029;48.244;9.188;2023-11-19T11:36:53;2.40;;;1.50;;
75450;SDS011;64029;48.244;9.188;2023-11-19T11:39:26;1.73;;;1.60;;
75450;SDS011;64029;48.244;9.188;2023-11-19T11:44:58;2.30;;;1.77;;
75450;SDS011;64029;48.244;9.188;2023-11-19T11:47:33;1.57;;;1.47;;
75450;SDS011;64029;48.244;9.188;2023-11-19T11:50:35;1.60;;;1.50;;
75450;SDS011;64029;48.244;9.188;2023-11-19T11:53:15;2.37;;;1.80;;
75450;SDS011;64029;48.244;9.188;2023-11-19T11:55:52;2.30;;;1.30;;
75450;SDS011;64029;48.244;9.188;2023-11-19T11:58:25;1.70;;;1.60;;
75450;SDS011;64029;48.244;9.188;2023-11-19T12:00:53;3.00;;;2.17;;
75450;SDS011;64029;48.244;9.188;2023-11-19T12:03:20;2.27;;;1.80;;
75450;SDS011;64029;48.244;9.188;2023-11-19T12:05:48;1.60;;;1.40;;
75450;SDS011;64029;48.244;9.188;2023-11-19T12:08:19;1.73;;;1.50;;
75450;SDS011;64029;48.244;9.188;2023-11-19T12:10:51;1.30;;;1.20;;
75450;SDS011;64029;48.244;9.188;2023-11-19T12:13:19;1.50;;;1.27;;
75450;SDS011;64029;48.244;9.188;2023-11-19T12:18:36;1.13;;;1.03;;
75450;SDS011;64029;48.244;9.188;2023-11-19T12:21:06;1.40;;;1.20;;
75450;SDS011;64029;48.244;9.188;2023-11-19T12:23:36;1.43;;;1.23;;
75450;SDS011;64029;48.244;9.188;2023-11-19T12:29:00;1.00;;;0.80;;
75450;SDS011;64029;48.244;9.188;2023-11-19T12:31:29;2.63;;;1.40;;
75450;SDS011;64029;48.244;9.188;2023-11-19T12:33:56;1.40;;;1.30;;
75450;SDS011;64029;48.244;9.188;2023-11-19T12:36:23;1.93;;;1.30;;
75450;SDS011;64029;48.244;9.188;2023-11-19T12:38:51;2.33;;;1.33;;
75450;SDS011;64029;48.244;9.188;2023-11-19T12:41:18;2.73;;;1.40;;
75450;SDS011;64029;48.244;9.188;2023-11-19T12:43:48;3.20;;;1.33;;
75450;SDS011;64029;48.244;9.188;2023-11-19T12:46:19;1.97;;;1.30;;
75450;SDS011;64029;48.244;9.188;2023-11-19T12:48:46;1.87;;;1.33;;
75450;SDS011;64029;48.244;9.188;2023-11-19T12:51:13;2.37;;;1.77;;
75450;SDS011;64029;48.244;9.188;2023-11-19T12:53:47;2.00;;;1.50;;
75450;SDS011;64029;48.244;9.188;2023-11-19T12:56:16;3.17;;;1.87;;
75450;SDS011;64029;48.244;9.188;2023-11-19T12:58:43;3.83;;;1.67;;
75450;SDS011;64029;48.244;9.188;2023-11-19T13:01:10;2.00;;;1.60;;
75450;SDS011;64029;48.244;9.188;2023-11-19T13:03:43;1.53;;;1.33;;
75450;SDS011;64029;48.244;9.188;2023-11-19T13:06:11;1.67;;;1.47;;
75450;SDS011;64029;48.244;9.188;2023-11-19T13:08:41;4.77;;;1.70;;
75450;SDS011;64029;48.244;9.188;2023-11-19T13:11:09;3.30;;;1.93;;
75450;SDS011;64029;48.244;9.188;2023-11-19T13:13:56;2.20;;;1.60;;
75450;SDS011;64029;48.244;9.188;2023-11-19T13:16:24;2.00;;;1.80;;
75450;SDS011;64029;48.244;9.188;2023-11-19T13:18:52;3.93;;;1.80;;
75450;SDS011;64029;48.244;9.188;2023-11-19T13:21:19;2.50;;;1.70;;
75450;SDS011;64029;48.244;9.188;2023-11-19T13:23:46;6.70;;;2.03;;
75450;SDS011;64029;48.244;9.188;2023-11-19T13:26:12;1.60;;;1.40;;
75450;SDS011;64029;48.244;9.188;2023-11-19T13:28:39;1.63;;;1.00;;
75450;SDS011;64029;48.244;9.188;2023-11-19T13:31:08;1.73;;;1.10;;
75450;SDS011;64029;48.244;9.188;2023-11-19T13:33:35;1.20;;;1.00;;
75450;SDS011;64029;48.244;9.188;2023-11-19T13:36:02;2.50;;;1.47;;
75450;SDS011;64029;48.244;9.188;2023-11-19T13:38:32;2.37;;;1.47;;
75450;SDS011;64029;48.244;9.188;2023-11-19T13:41:00;2.70;;;1.10;;
75450;SDS011;64029;48.244;9.188;2023-11-19T13:43:27;2.87;;;0.97;;
75450;SDS011;64029;48.244;9.188;2023-11-19T13:45:54;1.30;;;0.90;;
75450;SDS011;64029;48.244;9.188;2023-11-19T13:48:23;0.80;;;0.80;;
75450;SDS011;64029;48.244;9.188;2023-11-19T13:50:51;1.70;;;0.80;;
75450;SDS011;64029;48.244;9.188;2023-11-19T13:53:18;1.10;;;0.77;;
75450;SDS011;64029;48.244;9.188;2023-11-19T13:55:45;1.00;;;0.70;;
75450;SDS011;64029;48.244;9.188;2023-11-19T13:58:12;1.00;;;0.90;;
75450;SDS011;64029;48.244;9.188;2023-11-19T14:00:39;1.13;;;0.93;;
75450;SDS011;64029;48.244;9.188;2023-11-19T14:03:07;1.23;;;1.10;;
75450;SDS011;64029;48.244;9.188;2023-11-19T14:05:36;1.20;;;1.10;;
75450;SDS011;64029;48.244;9.188;2023-11-19T14:08:04;0.90;;;0.70;;
75450;SDS011;64029;48.244;9.188;2023-11-19T14:10:36;1.07;;;0.97;;
75450;SDS011;64029;48.244;9.188;2023-11-19T14:13:04;1.03;;;0.80;;
75450;SDS011;64029;48.244;9.188;2023-11-19T14:15:31;1.10;;;1.00;;
75450;SDS011;64029;48.244;9.188;2023-11-19T14:17:57;1.27;;;1.00;;
75450;SDS011;64029;48.244;9.188;2023-11-19T14:20:24;1.23;;;1.13;;
75450;SDS011;64029;48.244;9.188;2023-11-19T14:22:52;4.43;;;1.50;;
75450;SDS011;64029;48.244;9.188;2023-11-19T14:25:19;1.73;;;1.40;;
75450;SDS011;64029;48.244;9.188;2023-11-19T14:27:46;2.27;;;1.93;;
75450;SDS011;64029;48.244;9.188;2023-11-19T14:30:14;1.47;;;1.10;;
75450;SDS011;64029;48.244;9.188;2023-11-19T14:32:41;1.87;;;1.00;;
75450;SDS011;64029;48.244;9.188;2023-11-19T14:35:10;1.10;;;0.90;;
75450;SDS011;64029;48.244;9.188;2023-11-19T14:37:37;1.10;;;0.93;;
75450;SDS011;64029;48.244;9.188;2023-11-19T14:40:06;1.80;;;1.10;;
75450;SDS011;64029;48.244;9.188;2023-11-19T14:42:36;1.00;;;0.80;;
75450;SDS011;64029;48.244;9.188;2023-11-19T14:45:04;1.67;;;1.10;;
75450;SDS011;64029;48.244;9.188;2023-11-19T14:47:32;1.10;;;1.00;;
75450;SDS011;64029;48.244;9.188;2023-11-19T14:49:58;1.43;;;0.90;;
75450;SDS011;64029;48.244;9.188;2023-11-19T14:52:25;1.87;;;0.97;;
75450;SDS011;64029;48.244;9.188;2023-11-19T14:54:52;1.37;;;1.00;;
75450;SDS011;64029;48.244;9.188;2023-11-19T14:57:22;1.20;;;0.90;;
75450;SDS011;64029;48.244;9.188;2023-11-19T14:59:49;1.00;;;0.87;;
75450;SDS011;64029;48.244;9.188;2023-11-19T15:02:16;1.27;;;1.17;;
75450;SDS011;64029;48.244;9.188;2023-11-19T15:04:44;1.30;;;1.10;;